Time;durP1;ratioP1;P1;durP2;ratioP2;P2;SDS_P1;SDS_P2;PMS_P1;PMS_P2;Temp;Humidity;BMP_temperature;BMP_pressure;BME280_temperature;BME280_humidity;BME280_pressure;Samples;Min_cycle;Max_cycle;Signal;HPM_P1;HPM_P2
2023/06/01 00:00:17;;;;;;;8.20;6.47;;;13.20;99.90;;;;;;4991696;28;20209;-77
2023/06/01 00:02:46;;;;;;;8.43;5.77;;;13.20;99.90;;;;;;4991750;28;20896;-77
2023/06/01 00:05:13;;;;;;;9.27;6.43;;;13.20;99.90;;;;;;4990249;28;20626;-76
2023/06/01 00:07:40;;;;;;;8.83;6.17;;;13.20;99.90;;;;;;4982996;28;20226;-76
2023/06/01 00:10:07;;;;;;;9.87;6.37;;;13.20;99.90;;;;;;4987977;28;20205;-76
2023/06/01 00:12:35;;;;;;;7.70;5.93;;;13.20;99.90;;;;;;4989690;28;20221;-75
2023/06/01 00:15:03;;;;;;;8.87;5.73;;;13.20;99.90;;;;;;4983897;28;20237;-77
2023/06/01 00:17:30;;;;;;;11.40;7.53;;;13.20;99.90;;;;;;4993995;28;20226;-77
2023/06/01 00:20:00;;;;;;;7.00;5.77;;;13.10;99.90;;;;;;4995323;28;20585;-77
2023/06/01 00:22:28;;;;;;;6.73;5.37;;;13.10;99.90;;;;;;4993783;28;20213;-76
2023/06/01 00:24:55;;;;;;;8.67;6.70;;;13.10;99.90;;;;;;4993473;28;20908;-76
2023/06/01 00:27:22;;;;;;;9.27;6.57;;;13.00;99.90;;;;;;4994909;28;20201;-77
2023/06/01 00:29:50;;;;;;;8.87;6.30;;;13.00;99.90;;;;;;4988008;28;20201;-76
2023/06/01 00:32:17;;;;;;;9.27;5.93;;;13.00;99.90;;;;;;4994963;28;20212;-76
2023/06/01 00:34:44;;;;;;;8.53;6.17;;;12.90;99.90;;;;;;4993498;28;20275;-76
2023/06/01 00:37:11;;;;;;;8.57;5.97;;;12.90;99.90;;;;;;4993586;28;20213;-76
2023/06/01 00:39:38;;;;;;;6.80;5.83;;;12.80;99.90;;;;;;4989276;28;20259;-76
2023/06/01 00:42:05;;;;;;;8.73;6.37;;;12.80;99.90;;;;;;4993533;28;20197;-76
2023/06/01 00:44:32;;;;;;;8.23;6.57;;;12.80;99.90;;;;;;4993383;28;20708;-76
2023/06/01 00:47:00;;;;;;;7.80;6.13;;;12.70;99.90;;;;;;4993505;28;20260;-77
2023/06/01 00:49:27;;;;;;;10.23;6.17;;;12.70;99.90;;;;;;4993501;28;20572;-75
2023/06/01 00:51:55;;;;;;;8.20;5.33;;;12.70;99.90;;;;;;4986458;28;20201;-76
2023/06/01 00:54:22;;;;;;;9.43;6.37;;;12.70;99.90;;;;;;4994551;28;20225;-76
2023/06/01 00:56:49;;;;;;;7.77;5.87;;;12.60;99.90;;;;;;4995043;28;20300;-76
2023/06/01 00:59:16;;;;;;;8.63;6.33;;;12.60;99.90;;;;;;4993397;28;20208;-77
2023/06/01 01:01:43;;;;;;;11.37;6.43;;;12.50;99.90;;;;;;4985999;28;20198;-77
2023/06/01 01:04:13;;;;;;;7.63;5.93;;;12.50;99.90;;;;;;4989832;28;20221;-76
2023/06/01 01:06:51;;;;;;;9.33;5.93;;;12.50;99.90;;;;;;4988275;28;20206;-77
2023/06/01 01:09:27;;;;;;;8.07;5.73;;;12.40;99.90;;;;;;4986482;28;20205;-77
2023/06/01 01:12:00;;;;;;;9.77;5.80;;;12.40;99.90;;;;;;4987027;28;20210;-76
2023/06/01 01:14:36;;;;;;;8.40;6.30;;;12.40;99.90;;;;;;4985429;28;20230;-76
2023/06/01 01:17:10;;;;;;;8.70;6.47;;;12.50;99.90;;;;;;4992636;28;20274;-76
2023/06/01 01:19:59;;;;;;;9.67;6.27;;;12.40;99.90;;;;;;4988828;28;20624;-76
2023/06/01 01:22:40;;;;;;;9.97;6.70;;;12.30;99.90;;;;;;4992804;28;20197;-75
2023/06/01 01:25:22;;;;;;;9.47;6.67;;;12.20;99.90;;;;;;4987300;28;20215;-76
2023/06/01 01:28:14;;;;;;;8.27;6.37;;;12.20;99.90;;;;;;4998314;28;20198;-76
2023/06/01 01:30:43;;;;;;;8.03;6.80;;;12.20;99.90;;;;;;4989158;28;20200;-76
2023/06/01 01:33:11;;;;;;;8.67;6.80;;;12.20;99.90;;;;;;4993999;28;20213;-77
2023/06/01 01:35:38;;;;;;;7.87;6.50;;;12.20;99.90;;;;;;4992379;28;20217;-76
2023/06/01 01:38:05;;;;;;;8.47;6.50;;;12.20;99.90;;;;;;4988079;28;20217;-76
2023/06/01 01:40:32;;;;;;;10.07;7.23;;;12.10;99.90;;;;;;4987053;28;20205;-77
2023/06/01 01:43:00;;;;;;;8.27;6.37;;;12.10;99.90;;;;;;4992044;28;20221;-75
2023/06/01 01:45:27;;;;;;;10.03;6.50;;;12.10;99.90;;;;;;4991439;28;20205;-76
2023/06/01 01:48:04;;;;;;;8.17;6.07;;;12.10;99.90;;;;;;4988452;28;20193;-76
2023/06/01 01:50:37;;;;;;;7.57;6.57;;;12.10;99.90;;;;;;4987629;28;20202;-76
2023/06/01 01:53:07;;;;;;;8.27;6.20;;;12.10;99.90;;;;;;4992442;28;20232;-76
2023/06/01 01:55:35;;;;;;;9.70;6.70;;;12.00;99.90;;;;;;4991838;28;20263;-76
2023/06/01 01:58:03;;;;;;;9.53;6.93;;;12.00;99.90;;;;;;4991969;28;20224;-76
2023/06/01 02:00:31;;;;;;;9.43;7.23;;;12.00;99.90;;;;;;4984864;28;20301;-76
2023/06/01 02:03:00;;;;;;;10.03;7.20;;;11.90;99.90;;;;;;4984503;28;20784;-77
2023/06/01 02:05:27;;;;;;;9.93;7.03;;;11.90;99.90;;;;;;4993086;28;20206;-77
2023/06/01 02:07:54;;;;;;;11.03;7.33;;;11.90;99.90;;;;;;4987270;28;20228;-77
2023/06/01 02:10:20;;;;;;;10.43;7.23;;;11.90;99.90;;;;;;4986751;28;20224;-76
2023/06/01 02:12:47;;;;;;;9.03;6.50;;;11.80;99.90;;;;;;4991835;28;20229;-76
2023/06/01 02:15:14;;;;;;;8.30;6.57;;;11.80;99.90;;;;;;4991941;28;20271;-76
2023/06/01 02:17:42;;;;;;;7.87;6.47;;;11.80;99.90;;;;;;4984203;28;20224;-77
2023/06/01 02:20:11;;;;;;;7.73;6.90;;;11.70;99.90;;;;;;4992022;28;20292;-76
2023/06/01 02:22:38;;;;;;;8.37;6.63;;;11.70;99.90;;;;;;4991347;28;20231;-76
2023/06/01 02:25:06;;;;;;;8.60;6.50;;;11.60;99.90;;;;;;4987478;28;20208;-76
2023/06/01 02:27:33;;;;;;;8.57;6.70;;;11.60;99.90;;;;;;4991316;28;20695;-76
2023/06/01 02:29:59;;;;;;;7.17;6.33;;;11.60;99.90;;;;;;4988160;28;20263;-77
2023/06/01 02:32:27;;;;;;;7.80;6.87;;;11.60;99.90;;;;;;4989262;28;20246;-76
2023/06/01 02:34:55;;;;;;;8.03;6.50;;;11.60;99.90;;;;;;4985213;28;20667;-77
2023/06/01 02:37:24;;;;;;;7.83;6.33;;;11.60;99.90;;;;;;4991086;28;20234;-77
2023/06/01 02:39:50;;;;;;;7.70;6.73;;;11.60;99.90;;;;;;4991620;28;20201;-76
2023/06/01 02:42:18;;;;;;;7.97;6.70;;;11.60;99.90;;;;;;4992840;28;20208;-76
2023/06/01 02:44:45;;;;;;;8.17;6.47;;;11.60;99.90;;;;;;4992006;28;20208;-76
2023/06/01 02:47:12;;;;;;;7.43;6.63;;;11.60;99.90;;;;;;4993628;28;20620;-76
2023/06/01 02:49:39;;;;;;;8.07;6.60;;;11.50;99.90;;;;;;4984559;28;20291;-76
2023/06/01 02:52:06;;;;;;;8.53;7.43;;;11.50;99.90;;;;;;4988361;28;20287;-79
2023/06/01 02:54:34;;;;;;;8.33;6.83;;;11.50;99.90;;;;;;4993112;28;20219;-80
2023/06/01 02:57:12;;;;;;;9.20;6.90;;;11.50;99.90;;;;;;4987950;28;20311;-80
2023/06/01 02:59:44;;;;;;;7.97;6.70;;;11.40;99.90;;;;;;4990779;28;20701;-78
2023/06/01 03:02:11;;;;;;;7.67;6.80;;;11.40;99.90;;;;;;4987600;28;20205;-78
2023/06/01 03:04:38;;;;;;;9.90;7.17;;;11.40;99.90;;;;;;4996127;28;20275;-78
2023/06/01 03:07:06;;;;;;;8.30;7.00;;;11.40;99.90;;;;;;4998551;28;20599;-78
2023/06/01 03:09:56;;;;;;;9.93;7.00;;;11.40;99.90;;;;;;4991419;28;20203;-79
2023/06/01 03:12:56;;;;;;;7.83;7.03;;;11.40;99.90;;;;;;4975384;28;20247;-78
2023/06/01 03:15:23;;;;;;;7.43;6.63;;;11.40;99.90;;;;;;4994533;28;20387;-79
2023/06/01 03:17:50;;;;;;;8.63;6.77;;;11.40;99.90;;;;;;4993052;28;20223;-78
2023/06/01 03:20:17;;;;;;;8.67;6.83;;;11.40;99.90;;;;;;4990318;28;20204;-77
2023/06/01 03:22:45;;;;;;;9.07;6.90;;;11.50;99.90;;;;;;4993349;28;20231;-78
2023/06/01 03:25:14;;;;;;;8.70;6.60;;;11.40;99.90;;;;;;4993736;28;20204;-78
2023/06/01 03:27:41;;;;;;;8.07;6.47;;;11.40;99.90;;;;;;4986756;28;20262;-78
2023/06/01 03:30:10;;;;;;;9.70;7.07;;;11.30;99.90;;;;;;4995068;28;20222;-78
2023/06/01 03:32:38;;;;;;;7.67;6.63;;;11.30;99.90;;;;;;4995147;28;20272;-78
2023/06/01 03:35:07;;;;;;;8.33;6.93;;;11.30;99.90;;;;;;4992734;28;20204;-77
2023/06/01 03:37:35;;;;;;;9.33;7.60;;;11.30;99.90;;;;;;4991610;28;20219;-75
2023/06/01 03:40:10;;;;;;;10.73;7.67;;;11.30;99.90;;;;;;4992992;28;20203;-76
2023/06/01 03:42:38;;;;;;;10.20;7.43;;;11.30;99.90;;;;;;4991657;28;20277;-76
2023/06/01 03:45:06;;;;;;;10.07;7.60;;;11.30;99.90;;;;;;4990515;28;20566;-76
2023/06/01 03:47:33;;;;;;;9.40;6.90;;;11.30;99.90;;;;;;4990476;28;20247;-75
2023/06/01 03:50:00;;;;;;;8.33;6.63;;;11.30;99.90;;;;;;4990547;28;20232;-76
2023/06/01 03:52:27;;;;;;;9.03;6.90;;;11.30;99.90;;;;;;4993469;28;20258;-76
2023/06/01 03:54:55;;;;;;;8.47;6.57;;;11.40;99.90;;;;;;4988727;28;20609;-76
2023/06/01 03:57:43;;;;;;;8.27;6.77;;;11.40;99.90;;;;;;4990122;28;20750;-76
2023/06/01 04:00:18;;;;;;;7.77;6.43;;;11.40;99.90;;;;;;4994401;28;20631;-76
2023/06/01 04:02:53;;;;;;;11.03;6.87;;;11.50;99.90;;;;;;4998604;28;20223;-76
2023/06/01 04:05:20;;;;;;;8.17;6.43;;;11.50;99.90;;;;;;4998032;28;20207;-76
2023/06/01 04:07:48;;;;;;;8.60;6.60;;;11.50;99.90;;;;;;4994076;28;20667;-75
2023/06/01 04:10:16;;;;;;;7.87;6.40;;;11.50;99.90;;;;;;5001610;28;20244;-75
2023/06/01 04:12:45;;;;;;;7.23;5.50;;;11.60;99.90;;;;;;4995983;28;20302;-76
2023/06/01 04:15:14;;;;;;;8.70;5.97;;;11.60;99.90;;;;;;4993559;28;20208;-76
2023/06/01 04:17:42;;;;;;;9.90;6.33;;;11.70;99.90;;;;;;4995145;28;20547;-77
2023/06/01 04:20:11;;;;;;;7.90;6.17;;;11.70;99.90;;;;;;4988783;28;20201;-75
2023/06/01 04:22:39;;;;;;;8.47;5.90;;;11.90;99.90;;;;;;4993704;28;20248;-76
2023/06/01 04:25:11;;;;;;;6.87;6.03;;;12.00;99.90;;;;;;4995719;28;20193;-76
2023/06/01 04:27:44;;;;;;;7.97;5.67;;;12.10;99.90;;;;;;4994131;28;20220;-76
2023/06/01 04:30:13;;;;;;;9.13;6.27;;;12.10;99.90;;;;;;4995034;28;20571;-76
2023/06/01 04:32:41;;;;;;;7.57;5.87;;;12.20;99.90;;;;;;4993675;28;20271;-76
2023/06/01 04:35:11;;;;;;;10.17;6.40;;;12.30;99.90;;;;;;4993371;28;20201;-75
2023/06/01 04:37:40;;;;;;;8.80;6.27;;;12.50;99.90;;;;;;4993409;28;20202;-76
2023/06/01 04:40:09;;;;;;;9.30;6.60;;;12.60;99.90;;;;;;4987994;28;20197;-76
2023/06/01 04:42:40;;;;;;;8.13;6.50;;;12.80;99.90;;;;;;4993145;28;20312;-76
2023/06/01 04:45:09;;;;;;;8.33;6.13;;;12.90;99.90;;;;;;4993627;28;20215;-76
2023/06/01 04:47:39;;;;;;;8.40;6.07;;;13.10;99.90;;;;;;4993089;28;20221;-76
2023/06/01 04:50:11;;;;;;;7.57;5.63;;;13.40;99.90;;;;;;4988858;28;20742;-76
2023/06/01 04:52:38;;;;;;;12.07;6.57;;;13.80;99.90;;;;;;4998209;28;20762;-77
2023/06/01 04:55:06;;;;;;;7.83;6.00;;;14.30;99.90;;;;;;4993225;28;20198;-76
2023/06/01 04:57:35;;;;;;;7.97;6.03;;;14.70;99.90;;;;;;4995563;28;20203;-76
2023/06/01 05:00:06;;;;;;;6.17;5.00;;;15.00;99.90;;;;;;4986875;28;20199;-76
2023/06/01 05:02:32;;;;;;;7.33;5.23;;;15.20;99.90;;;;;;4989494;28;20222;-76
2023/06/01 05:05:01;;;;;;;6.17;5.17;;;15.30;99.90;;;;;;4988567;28;20208;-76
2023/06/01 05:07:27;;;;;;;8.50;5.53;;;15.30;99.90;;;;;;4987581;28;20224;-76
2023/06/01 05:09:54;;;;;;;8.13;5.27;;;15.30;99.90;;;;;;4979173;28;20296;-76
2023/06/01 05:12:21;;;;;;;7.50;5.30;;;15.20;99.90;;;;;;4991226;28;20234;-76
2023/06/01 05:14:49;;;;;;;8.53;5.37;;;15.10;99.90;;;;;;4988062;28;20236;-76
2023/06/01 05:17:16;;;;;;;7.23;5.53;;;15.20;99.90;;;;;;4992934;28;20208;-76
2023/06/01 05:19:43;;;;;;;9.10;4.87;;;15.50;99.90;;;;;;4992908;28;20208;-76
2023/06/01 05:22:12;;;;;;;7.83;5.27;;;15.70;99.90;;;;;;4987695;28;20209;-76
2023/06/01 05:24:39;;;;;;;6.07;5.00;;;15.80;99.90;;;;;;4986101;28;20204;-76
2023/06/01 05:27:07;;;;;;;8.20;5.13;;;15.90;99.90;;;;;;4992275;28;20201;-76
2023/06/01 05:29:34;;;;;;;7.50;4.80;;;15.90;99.90;;;;;;4992473;28;20599;-76
2023/06/01 05:32:01;;;;;;;7.17;5.03;;;16.00;99.90;;;;;;4994045;28;20891;-76
2023/06/01 05:34:28;;;;;;;7.27;5.00;;;16.00;99.90;;;;;;4987437;28;20214;-76
2023/06/01 05:36:54;;;;;;;7.93;4.70;;;16.20;99.90;;;;;;4993578;28;20197;-77
2023/06/01 05:39:27;;;;;;;7.50;5.13;;;16.40;99.90;;;;;;4992475;28;20201;-76
2023/06/01 05:41:54;;;;;;;6.47;4.83;;;16.60;99.90;;;;;;4992452;28;20293;-77
2023/06/01 05:44:21;;;;;;;6.57;5.00;;;17.00;99.90;;;;;;4988435;28;20318;-77
2023/06/01 05:46:49;;;;;;;7.83;4.97;;;17.50;99.90;;;;;;4987109;28;20197;-76
2023/06/01 05:49:16;;;;;;;5.83;4.73;;;18.30;99.90;;;;;;4997369;28;20595;-77
2023/06/01 05:51:43;;;;;;;6.83;4.87;;;19.00;99.90;;;;;;4992136;28;20669;-76
2023/06/01 05:54:10;;;;;;;8.40;5.13;;;19.50;99.90;;;;;;4987274;28;20233;-76
2023/06/01 05:56:40;;;;;;;7.20;4.63;;;19.90;99.90;;;;;;4985565;28;20225;-77
2023/06/01 05:59:08;;;;;;;5.13;4.60;;;20.30;99.90;;;;;;4992342;28;20605;-77
2023/06/01 06:01:36;;;;;;;6.80;4.80;;;20.70;99.90;;;;;;4992151;28;20201;-77
2023/06/01 06:04:03;;;;;;;5.27;4.23;;;21.10;99.90;;;;;;4993273;28;20802;-77
2023/06/01 06:06:30;;;;;;;8.03;5.50;;;21.40;99.90;;;;;;4991815;28;20271;-77
2023/06/01 06:08:57;;;;;;;8.37;4.73;;;21.60;99.90;;;;;;4993030;28;20252;-77
2023/06/01 06:11:25;;;;;;;6.17;4.60;;;21.70;99.90;;;;;;4993108;28;20201;-77
2023/06/01 06:13:53;;;;;;;6.60;4.30;;;21.90;99.90;;;;;;4983810;28;20324;-76
2023/06/01 06:16:20;;;;;;;9.63;4.70;;;22.00;99.90;;;;;;4993546;28;20271;-78
2023/06/01 06:18:47;;;;;;;7.23;4.40;;;21.70;99.90;;;;;;4994702;28;20213;-77
2023/06/01 06:21:14;;;;;;;9.30;4.60;;;21.80;99.90;;;;;;4995559;28;20679;-77
2023/06/01 06:23:42;;;;;;;7.37;5.33;;;21.80;99.90;;;;;;4994129;28;20232;-78
2023/06/01 06:26:09;;;;;;;7.00;4.50;;;22.10;99.90;;;;;;4992901;28;20197;-76
2023/06/01 06:28:36;;;;;;;9.03;4.93;;;22.20;99.90;;;;;;4993238;28;20778;-77
2023/06/01 06:31:04;;;;;;;8.67;4.97;;;22.30;99.90;;;;;;4992515;28;20204;-76
2023/06/01 06:33:31;;;;;;;6.53;4.80;;;22.30;99.90;;;;;;4991541;28;20694;-77
2023/06/01 06:35:58;;;;;;;6.07;4.47;;;22.60;99.90;;;;;;4991324;28;20581;-76
2023/06/01 06:38:25;;;;;;;5.23;4.70;;;22.70;99.90;;;;;;4992749;28;20555;-77
2023/06/01 06:40:52;;;;;;;6.07;4.57;;;23.00;99.90;;;;;;4991285;28;20212;-77
2023/06/01 06:43:19;;;;;;;5.93;4.40;;;22.90;99.90;;;;;;4991352;28;20272;-77
2023/06/01 06:45:45;;;;;;;8.53;4.77;;;23.10;99.90;;;;;;4992301;28;20676;-77
2023/06/01 06:48:14;;;;;;;6.03;4.80;;;23.40;99.90;;;;;;4992584;28;20225;-76
2023/06/01 06:50:44;;;;;;;7.77;4.97;;;23.40;99.90;;;;;;4992196;28;20197;-76
2023/06/01 06:53:10;;;;;;;5.40;4.10;;;23.50;99.90;;;;;;4985271;28;20217;-77
2023/06/01 06:55:37;;;;;;;5.83;4.53;;;23.80;99.90;;;;;;4983092;28;20205;-77
2023/06/01 06:58:04;;;;;;;11.17;4.60;;;24.20;99.90;;;;;;4992081;28;20281;-77
2023/06/01 07:00:32;;;;;;;8.13;5.17;;;24.10;99.90;;;;;;4992463;28;20277;-76
2023/06/01 07:03:00;;;;;;;6.83;4.63;;;24.10;99.90;;;;;;4990921;28;20257;-77
2023/06/01 07:05:28;;;;;;;6.03;4.30;;;24.40;99.90;;;;;;4991228;28;20599;-77
2023/06/01 07:07:54;;;;;;;7.43;4.77;;;24.60;99.90;;;;;;4991891;28;22530;-76
2023/06/01 07:10:21;;;;;;;8.50;4.60;;;24.60;99.90;;;;;;4988485;28;20259;-77
2023/06/01 07:12:48;;;;;;;6.77;4.57;;;24.70;99.90;;;;;;4991800;28;20221;-77
2023/06/01 07:15:16;;;;;;;6.33;4.17;;;24.60;99.90;;;;;;4991723;28;20578;-77
2023/06/01 07:17:43;;;;;;;8.87;4.50;;;24.60;99.90;;;;;;4989526;28;20683;-77
2023/06/01 07:20:11;;;;;;;6.00;4.03;;;24.60;99.90;;;;;;4998399;28;20209;-77
2023/06/01 07:22:40;;;;;;;5.87;3.80;;;24.60;99.90;;;;;;4991723;28;20239;-76
2023/06/01 07:25:08;;;;;;;5.20;4.13;;;25.00;99.90;;;;;;4991846;28;20267;-77
2023/06/01 07:27:36;;;;;;;7.13;4.63;;;25.10;99.90;;;;;;4991393;28;20193;-77
2023/06/01 07:30:03;;;;;;;6.20;4.23;;;24.40;98.80;;;;;;4983942;28;20224;-77
2023/06/01 07:32:29;;;;;;;8.13;4.40;;;24.40;99.90;;;;;;4993334;28;20280;-77
2023/06/01 07:34:57;;;;;;;5.80;4.20;;;24.60;99.90;;;;;;4997851;28;20672;-76
2023/06/01 07:37:26;;;;;;;6.37;4.50;;;24.40;99.90;;;;;;4992795;28;20201;-76
2023/06/01 07:39:55;;;;;;;7.60;5.03;;;24.60;99.90;;;;;;4998511;28;20201;-77
2023/06/01 07:42:21;;;;;;;6.83;4.60;;;24.30;99.90;;;;;;4983674;28;20633;-81
2023/06/01 07:44:48;;;;;;;7.30;4.63;;;24.60;99.90;;;;;;4989148;28;20190;-79
2023/06/01 07:47:15;;;;;;;10.37;5.60;;;24.80;99.90;;;;;;4995682;28;20193;-78
2023/06/01 07:49:42;;;;;;;10.63;5.27;;;24.70;99.30;;;;;;4997077;28;20201;-79
2023/06/01 07:52:09;;;;;;;8.10;5.03;;;24.90;99.90;;;;;;4995894;28;20208;-79
2023/06/01 07:54:37;;;;;;;7.87;5.30;;;25.00;99.80;;;;;;4990274;28;20630;-79
2023/06/01 07:57:06;;;;;;;8.57;5.03;;;25.10;99.70;;;;;;4995600;28;20233;-79
2023/06/01 07:59:33;;;;;;;7.80;4.50;;;25.20;99.70;;;;;;4996925;28;20264;-78
2023/06/01 08:02:00;;;;;;;8.73;5.23;;;25.50;99.90;;;;;;4997648;28;20227;-79
2023/06/01 08:04:33;;;;;;;9.03;5.17;;;25.80;99.90;;;;;;4997831;28;20248;-79
2023/06/01 08:07:03;;;;;;;5.30;4.23;;;25.90;99.90;;;;;;4989769;28;21249;-79
2023/06/01 08:09:30;;;;;;;8.40;4.50;;;26.30;99.10;;;;;;4993969;28;20193;-79
2023/06/01 08:11:57;;;;;;;7.37;4.67;;;26.20;98.60;;;;;;4993223;28;20201;-79
2023/06/01 08:14:25;;;;;;;7.40;4.70;;;26.00;99.80;;;;;;4994885;28;20723;-77
2023/06/01 08:16:52;;;;;;;5.87;4.40;;;25.60;97.90;;;;;;4995341;28;20280;-78
2023/06/01 08:19:19;;;;;;;6.20;4.43;;;25.70;99.90;;;;;;4993911;28;20221;-78
2023/06/01 08:21:46;;;;;;;5.90;4.97;;;25.90;99.00;;;;;;4993777;28;20197;-77
2023/06/01 08:24:13;;;;;;;7.03;4.57;;;25.70;99.00;;;;;;4994227;28;20221;-77
2023/06/01 08:26:40;;;;;;;6.40;4.57;;;26.00;99.70;;;;;;4994017;28;20193;-78
2023/06/01 08:29:07;;;;;;;8.77;5.33;;;26.30;98.50;;;;;;4985308;28;20280;-77
2023/06/01 08:31:36;;;;;;;7.43;4.90;;;26.50;96.70;;;;;;4992668;28;20676;-77
2023/06/01 08:34:03;;;;;;;6.40;4.70;;;26.40;96.60;;;;;;4993392;28;20228;-80
2023/06/01 08:36:30;;;;;;;7.30;5.37;;;26.10;98.10;;;;;;4994466;28;20201;-80
2023/06/01 08:38:57;;;;;;;8.87;6.40;;;26.20;97.80;;;;;;4996934;28;20224;-78
2023/06/01 08:41:26;;;;;;;8.07;6.13;;;26.00;97.10;;;;;;5003628;28;20205;-80
2023/06/01 08:43:58;;;;;;;7.40;5.30;;;25.50;97.00;;;;;;4996325;28;20291;-79
2023/06/01 08:46:26;;;;;;;6.43;4.50;;;25.60;97.20;;;;;;4995127;28;20445;-79
2023/06/01 08:48:55;;;;;;;5.47;4.75;;;26.20;98.70;;;;;;4993725;28;20437;-77
2023/06/01 08:51:23;;;;;;;8.70;4.90;;;26.50;98.40;;;;;;4996192;28;20534;-77
2023/06/01 08:53:52;;;;;;;7.85;4.55;;;26.80;97.90;;;;;;4995257;28;20437;-78
2023/06/01 08:56:19;;;;;;;7.67;4.73;;;27.40;98.50;;;;;;4994735;28;20198;-77
2023/06/01 08:58:47;;;;;;;5.87;4.63;;;27.80;96.60;;;;;;4996410;28;20213;-77
2023/06/01 09:01:20;;;;;;;6.87;5.00;;;27.80;97.90;;;;;;4997141;28;20255;-77
2023/06/01 09:03:48;;;;;;;10.13;4.70;;;27.90;97.60;;;;;;4995569;28;20236;-78
2023/06/01 09:06:16;;;;;;;7.57;4.83;;;28.00;97.90;;;;;;4996729;28;20197;-77
2023/06/01 09:08:43;;;;;;;9.50;5.20;;;28.10;96.50;;;;;;4995791;28;20198;-77
2023/06/01 09:11:10;;;;;;;5.93;5.10;;;27.80;96.20;;;;;;4995840;28;20217;-77
2023/06/01 09:13:37;;;;;;;9.47;5.23;;;27.50;97.60;;;;;;4997057;28;20278;-77
2023/06/01 09:16:05;;;;;;;8.93;5.60;;;27.70;96.90;;;;;;4996713;28;20263;-77
2023/06/01 09:18:33;;;;;;;7.23;5.03;;;27.30;95.60;;;;;;4996416;28;20203;-77
2023/06/01 09:21:11;;;;;;;6.67;4.90;;;27.30;97.30;;;;;;4994902;28;20220;-77
2023/06/01 09:23:41;;;;;;;10.43;5.30;;;27.60;97.40;;;;;;4996543;28;20220;-77
2023/06/01 09:26:08;;;;;;;7.93;5.10;;;27.80;97.10;;;;;;4993059;28;20197;-77
2023/06/01 09:28:55;;;;;;;7.53;4.80;;;27.50;98.20;;;;;;4995319;28;20656;-77
2023/06/01 09:31:39;;;;;;;7.47;5.17;;;27.80;97.90;;;;;;4994431;28;20197;-77
2023/06/01 09:34:07;;;;;;;6.60;5.13;;;27.60;96.70;;;;;;4995785;28;20221;-77
2023/06/01 09:36:35;;;;;;;8.40;5.23;;;27.70;97.30;;;;;;4994528;28;20221;-78
2023/06/01 09:39:06;;;;;;;7.97;5.00;;;27.90;97.40;;;;;;4995358;28;20216;-77
2023/06/01 09:41:46;;;;;;;11.47;4.93;;;28.10;97.60;;;;;;5000018;28;20204;-77
2023/06/01 09:44:13;;;;;;;6.33;4.40;;;28.10;96.70;;;;;;4988779;28;20221;-80
2023/06/01 09:46:48;;;;;;;9.70;5.10;;;28.00;96.40;;;;;;4997614;28;20264;-79
2023/06/01 09:49:21;;;;;;;10.77;4.80;;;27.90;96.30;;;;;;4986170;28;20251;-79
2023/06/01 09:51:48;;;;;;;6.80;4.83;;;28.10;98.00;;;;;;4997124;28;20197;-78
2023/06/01 09:54:30;;;;;;;6.70;4.70;;;28.10;98.30;;;;;;4996783;28;20229;-78
2023/06/01 09:56:58;;;;;;;7.93;5.00;;;28.60;98.00;;;;;;4995808;28;20212;-78
2023/06/01 09:59:28;;;;;;;7.05;5.30;;;28.40;95.90;;;;;;4995966;28;20448;-78
2023/06/01 10:01:57;;;;;;;7.40;5.60;;;28.20;96.40;;;;;;4997643;28;20193;-77
2023/06/01 10:04:26;;;;;;;7.97;5.13;;;28.40;95.60;;;;;;4996966;28;20846;-78
2023/06/01 10:06:54;;;;;;;6.95;5.22;;;28.60;96.50;;;;;;5001726;28;20519;-78
2023/06/01 10:09:24;;;;;;;7.20;5.03;;;28.30;96.40;;;;;;5002202;28;20584;-78
2023/06/01 10:11:55;;;;;;;7.13;5.17;;;28.30;96.30;;;;;;4996964;28;20652;-78
2023/06/01 10:14:23;;;;;;;7.05;5.30;;;28.20;96.20;;;;;;4990894;28;20499;-78
2023/06/01 10:16:51;;;;;;;9.43;5.10;;;28.20;94.90;;;;;;4996049;28;20255;-77
2023/06/01 10:19:19;;;;;;;10.10;6.83;;;27.70;93.20;;;;;;4995138;28;20799;-78
2023/06/01 10:21:46;;;;;;;11.70;7.03;;;27.40;94.90;;;;;;4996683;28;20201;-77
2023/06/01 10:24:14;;;;;;;6.83;5.07;;;27.60;94.40;;;;;;4988415;28;20228;-78
2023/06/01 10:26:52;;;;;;;7.30;5.13;;;27.80;96.20;;;;;;4994672;28;20679;-78
2023/06/01 10:29:21;;;;;;;8.23;5.03;;;28.10;94.00;;;;;;4988918;28;20189;-77
2023/06/01 10:31:47;;;;;;;6.60;4.93;;;28.10;93.20;;;;;;4995280;28;20201;-78
2023/06/01 10:34:14;;;;;;;8.23;7.43;;;27.60;93.40;;;;;;4995671;28;20233;-78
2023/06/01 10:37:16;;;;;;;8.97;5.03;;;27.50;93.00;;;;;;4996279;28;20665;-78
2023/06/01 10:39:43;;;;;;;5.80;4.90;;;27.80;92.50;;;;;;4992581;28;20212;-77
2023/06/01 10:42:38;;;;;;;7.70;5.33;;;27.90;92.30;;;;;;4987749;28;20201;-78
2023/06/01 10:45:26;;;;;;;6.03;4.53;;;27.60;92.80;;;;;;4994571;28;20209;-77
2023/06/01 10:47:53;;;;;;;9.20;6.23;;;27.20;92.70;;;;;;4990942;28;20197;-78
2023/06/01 10:50:20;;;;;;;7.83;6.47;;;26.90;93.90;;;;;;4990399;28;20185;-77
2023/06/01 10:52:47;;;;;;;7.33;5.40;;;26.80;92.90;;;;;;4995786;28;20213;-77
2023/06/01 10:55:22;;;;;;;9.13;5.77;;;26.60;93.20;;;;;;4994168;28;20202;-77
2023/06/01 10:57:50;;;;;;;8.33;6.97;;;26.70;94.50;;;;;;4995118;28;20209;-77
2023/06/01 11:00:22;;;;;;;7.20;4.97;;;26.80;93.00;;;;;;4993352;28;20209;-77
2023/06/01 11:02:54;;;;;;;7.70;5.40;;;26.80;93.30;;;;;;4993149;28;20216;-77
2023/06/01 11:05:42;;;;;;;8.67;7.87;;;26.80;92.90;;;;;;4990531;28;20559;-77
2023/06/01 11:08:28;;;;;;;10.50;8.73;;;26.60;93.70;;;;;;4994327;28;20204;-78
2023/06/01 11:10:58;;;;;;;9.33;8.43;;;26.60;93.40;;;;;;4994189;28;20201;-77
2023/06/01 11:13:27;;;;;;;10.60;8.50;;;26.60;93.90;;;;;;4994182;28;20217;-77
2023/06/01 11:16:30;;;;;;;8.70;7.90;;;26.50;93.40;;;;;;4985772;28;20213;-77
2023/06/01 11:18:58;;;;;;;6.20;5.30;;;26.30;93.60;;;;;;4994093;28;20188;-77
2023/06/01 11:21:27;;;;;;;7.53;6.70;;;26.40;95.20;;;;;;4992571;28;20201;-77
2023/06/01 11:23:55;;;;;;;8.33;7.63;;;26.80;95.10;;;;;;4994309;28;20276;-77
2023/06/01 11:26:24;;;;;;;8.47;7.67;;;26.80;94.60;;;;;;4993804;28;20727;-77
2023/06/01 11:28:52;;;;;;;8.57;7.67;;;26.90;93.40;;;;;;4994495;28;20707;-78
2023/06/01 11:31:20;;;;;;;8.50;7.77;;;26.90;93.20;;;;;;4991079;28;20208;-78
2023/06/01 11:33:53;;;;;;;8.17;7.47;;;26.90;94.10;;;;;;4993961;28;20277;-78
2023/06/01 11:36:24;;;;;;;10.10;8.13;;;26.90;94.60;;;;;;4984637;28;20201;-78
2023/06/01 11:38:52;;;;;;;5.77;4.40;;;26.60;93.60;;;;;;4992610;28;20221;-78
2023/06/01 11:41:22;;;;;;;6.13;5.30;;;26.60;94.80;;;;;;4993612;28;20304;-78
2023/06/01 11:43:55;;;;;;;8.53;5.03;;;26.60;94.20;;;;;;4993837;28;20228;-79
2023/06/01 11:46:23;;;;;;;7.97;5.03;;;26.70;94.10;;;;;;4981271;28;20232;-78
2023/06/01 11:49:02;;;;;;;8.10;7.30;;;26.60;94.20;;;;;;4989193;28;20293;-77
2023/06/01 11:51:30;;;;;;;10.17;7.40;;;26.50;94.90;;;;;;4990877;28;20193;-77
2023/06/01 11:53:57;;;;;;;7.93;7.17;;;26.40;94.30;;;;;;4993465;28;20280;-78
2023/06/01 11:56:30;;;;;;;7.93;7.13;;;26.50;94.40;;;;;;4992180;28;20193;-78
2023/06/01 11:59:01;;;;;;;8.97;8.10;;;26.40;94.00;;;;;;4993189;28;20288;-78
2023/06/01 12:01:28;;;;;;;9.23;8.33;;;26.20;94.40;;;;;;4990138;28;20221;-78
2023/06/01 12:03:56;;;;;;;9.40;8.47;;;26.30;94.20;;;;;;4993471;28;20248;-78
2023/06/01 12:06:26;;;;;;;8.03;6.33;;;26.20;94.40;;;;;;4994409;28;20747;-78
2023/06/01 12:08:54;;;;;;;6.87;5.47;;;26.30;94.20;;;;;;4991736;28;20232;-78
2023/06/01 12:11:26;;;;;;;8.13;6.13;;;26.30;93.80;;;;;;4993404;28;20189;-78
2023/06/01 12:13:53;;;;;;;6.47;5.70;;;26.40;94.80;;;;;;4995830;28;20236;-78
2023/06/01 12:16:20;;;;;;;7.47;5.67;;;26.40;93.80;;;;;;4988480;28;20297;-78
2023/06/01 12:18:47;;;;;;;7.70;6.90;;;26.40;94.20;;;;;;4997762;28;20660;-78
2023/06/01 12:21:14;;;;;;;7.83;6.00;;;26.40;94.20;;;;;;4998961;28;20633;-79
2023/06/01 12:23:45;;;;;;;5.93;5.30;;;26.40;93.80;;;;;;4999173;28;20690;-79
2023/06/01 12:26:11;;;;;;;7.83;6.33;;;26.30;93.50;;;;;;4996862;28;20216;-80
2023/06/01 12:28:49;;;;;;;6.53;4.50;;;26.40;93.50;;;;;;4995316;28;20201;-80
2023/06/01 12:31:17;;;;;;;6.60;5.03;;;26.50;94.30;;;;;;4998107;28;20220;-79
2023/06/01 12:33:45;;;;;;;7.23;4.80;;;26.50;94.00;;;;;;4998886;28;20221;-79
2023/06/01 12:36:31;;;;;;;5.40;4.87;;;26.30;93.90;;;;;;4999466;28;20739;-80
2023/06/01 12:39:00;;;;;;;5.43;4.53;;;26.40;94.40;;;;;;4996204;28;20209;-79
2023/06/01 12:41:28;;;;;;;6.90;4.67;;;26.60;94.10;;;;;;5000641;28;20213;-80
2023/06/01 12:43:56;;;;;;;6.47;4.73;;;26.60;93.90;;;;;;4992229;28;20217;-79
2023/06/01 12:46:25;;;;;;;6.60;5.03;;;26.60;93.90;;;;;;5000013;28;20201;-80
2023/06/01 12:48:53;;;;;;;5.33;4.63;;;26.60;93.70;;;;;;4998190;28;20221;-77
2023/06/01 12:51:21;;;;;;;9.23;5.03;;;26.60;94.40;;;;;;4986431;28;20636;-78
2023/06/01 12:53:48;;;;;;;6.10;5.23;;;26.40;92.50;;;;;;4998936;28;20221;-78
2023/06/01 12:56:16;;;;;;;5.85;5.10;;;26.30;93.10;;;;;;4994585;28;20503;-77